sensor_id;sensor_type;location;lat;lon;timestamp;P1;durP1;ratioP1;P2;durP2;ratioP2
26484;SDS011;18083;50.560;7.262;2022-08-06T00:01:15;1.17;;;0.98;;
26484;SDS011;18083;50.560;7.262;2022-08-06T00:03:42;3.33;;;1.62;;
26484;SDS011;18083;50.560;7.262;2022-08-06T00:06:09;1.77;;;1.55;;
26484;SDS011;18083;50.560;7.262;2022-08-06T00:08:37;1.65;;;0.93;;
26484;SDS011;18083;50.560;7.262;2022-08-06T00:11:04;1.75;;;1.07;;
26484;SDS011;18083;50.560;7.262;2022-08-06T00:13:31;5.50;;;1.20;;
26484;SDS011;18083;50.560;7.262;2022-08-06T00:15:59;2.77;;;1.22;;
26484;SDS011;18083;50.560;7.262;2022-08-06T00:18:26;4.58;;;1.40;;
26484;SDS011;18083;50.560;7.262;2022-08-06T00:20:53;3.90;;;1.30;;
26484;SDS011;18083;50.560;7.262;2022-08-06T00:23:20;1.87;;;1.10;;
26484;SDS011;18083;50.560;7.262;2022-08-06T00:25:48;1.77;;;1.42;;
26484;SDS011;18083;50.560;7.262;2022-08-06T00:28:15;2.75;;;1.22;;
26484;SDS011;18083;50.560;7.262;2022-08-06T00:30:42;6.83;;;1.45;;
26484;SDS011;18083;50.560;7.262;2022-08-06T00:33:10;1.65;;;1.35;;
26484;SDS011;18083;50.560;7.262;2022-08-06T00:35:37;2.45;;;1.45;;
26484;SDS011;18083;50.560;7.262;2022-08-06T00:38:05;4.55;;;1.07;;
26484;SDS011;18083;50.560;7.262;2022-08-06T00:40:32;3.62;;;1.27;;
26484;SDS011;18083;50.560;7.262;2022-08-06T00:43:00;3.35;;;1.32;;
26484;SDS011;18083;50.560;7.262;2022-08-06T00:45:29;2.77;;;1.30;;
26484;SDS011;18083;50.560;7.262;2022-08-06T00:47:56;1.30;;;1.20;;
26484;SDS011;18083;50.560;7.262;2022-08-06T00:50:24;1.07;;;1.00;;
26484;SDS011;18083;50.560;7.262;2022-08-06T00:52:51;3.30;;;1.72;;
26484;SDS011;18083;50.560;7.262;2022-08-06T00:55:19;2.37;;;1.70;;
26484;SDS011;18083;50.560;7.262;2022-08-06T00:57:46;3.35;;;1.60;;
26484;SDS011;18083;50.560;7.262;2022-08-06T01:00:14;3.17;;;1.57;;
26484;SDS011;18083;50.560;7.262;2022-08-06T01:02:41;3.40;;;2.02;;
26484;SDS011;18083;50.560;7.262;2022-08-06T01:05:08;7.15;;;1.72;;
26484;SDS011;18083;50.560;7.262;2022-08-06T01:07:36;3.62;;;1.95;;
26484;SDS011;18083;50.560;7.262;2022-08-06T01:10:03;3.22;;;1.35;;
26484;SDS011;18083;50.560;7.262;2022-08-06T01:12:31;2.95;;;1.50;;
26484;SDS011;18083;50.560;7.262;2022-08-06T01:14:58;2.62;;;1.80;;
26484;SDS011;18083;50.560;7.262;2022-08-06T01:17:34;6.70;;;2.72;;
26484;SDS011;18083;50.560;7.262;2022-08-06T01:22:47;3.17;;;1.62;;
26484;SDS011;18083;50.560;7.262;2022-08-06T01:30:28;4.65;;;1.55;;
26484;SDS011;18083;50.560;7.262;2022-08-06T01:33:03;2.10;;;1.65;;
26484;SDS011;18083;50.560;7.262;2022-08-06T01:35:27;2.77;;;1.60;;
26484;SDS011;18083;50.560;7.262;2022-08-06T01:38:00;3.05;;;2.12;;
26484;SDS011;18083;50.560;7.262;2022-08-06T01:40:24;3.22;;;1.80;;
26484;SDS011;18083;50.560;7.262;2022-08-06T01:42:53;4.97;;;1.70;;
26484;SDS011;18083;50.560;7.262;2022-08-06T01:45:22;5.42;;;1.65;;
26484;SDS011;18083;50.560;7.262;2022-08-06T01:47:51;1.50;;;1.32;;
26484;SDS011;18083;50.560;7.262;2022-08-06T01:50:20;2.27;;;1.45;;
26484;SDS011;18083;50.560;7.262;2022-08-06T01:52:48;3.33;;;1.47;;
26484;SDS011;18083;50.560;7.262;2022-08-06T01:55:16;2.58;;;1.47;;
26484;SDS011;18083;50.560;7.262;2022-08-06T01:57:53;3.12;;;1.75;;
26484;SDS011;18083;50.560;7.262;2022-08-06T02:00:20;3.45;;;1.47;;
26484;SDS011;18083;50.560;7.262;2022-08-06T02:02:47;4.85;;;1.60;;
26484;SDS011;18083;50.560;7.262;2022-08-06T02:05:16;1.70;;;1.60;;
26484;SDS011;18083;50.560;7.262;2022-08-06T02:07:45;1.70;;;1.37;;
26484;SDS011;18083;50.560;7.262;2022-08-06T02:10:13;3.62;;;1.55;;
26484;SDS011;18083;50.560;7.262;2022-08-06T02:12:41;1.67;;;1.57;;
26484;SDS011;18083;50.560;7.262;2022-08-06T02:15:16;3.58;;;2.00;;
26484;SDS011;18083;50.560;7.262;2022-08-06T02:17:47;3.75;;;1.45;;
26484;SDS011;18083;50.560;7.262;2022-08-06T02:20:14;3.72;;;1.80;;
26484;SDS011;18083;50.560;7.262;2022-08-06T02:22:42;6.50;;;2.05;;
26484;SDS011;18083;50.560;7.262;2022-08-06T02:25:12;3.02;;;1.47;;
26484;SDS011;18083;50.560;7.262;2022-08-06T02:27:41;2.12;;;1.37;;
26484;SDS011;18083;50.560;7.262;2022-08-06T02:30:09;8.40;;;2.10;;
26484;SDS011;18083;50.560;7.262;2022-08-06T02:32:36;2.70;;;1.62;;
26484;SDS011;18083;50.560;7.262;2022-08-06T02:35:04;1.52;;;1.42;;
26484;SDS011;18083;50.560;7.262;2022-08-06T02:37:36;6.50;;;2.30;;
26484;SDS011;18083;50.560;7.262;2022-08-06T02:40:06;2.65;;;1.42;;
26484;SDS011;18083;50.560;7.262;2022-08-06T02:42:33;2.52;;;1.77;;
26484;SDS011;18083;50.560;7.262;2022-08-06T02:45:02;4.95;;;1.77;;
26484;SDS011;18083;50.560;7.262;2022-08-06T02:47:31;2.75;;;1.72;;
26484;SDS011;18083;50.560;7.262;2022-08-06T02:49:59;4.30;;;1.65;;
26484;SDS011;18083;50.560;7.262;2022-08-06T02:55:12;3.52;;;1.82;;
26484;SDS011;18083;50.560;7.262;2022-08-06T02:57:41;1.98;;;1.40;;
26484;SDS011;18083;50.560;7.262;2022-08-06T03:00:09;2.87;;;1.80;;
26484;SDS011;18083;50.560;7.262;2022-08-06T03:02:37;4.17;;;1.70;;
26484;SDS011;18083;50.560;7.262;2022-08-06T03:05:06;4.05;;;1.87;;
26484;SDS011;18083;50.560;7.262;2022-08-06T03:07:34;2.02;;;1.60;;
26484;SDS011;18083;50.560;7.262;2022-08-06T03:10:02;3.90;;;1.60;;
26484;SDS011;18083;50.560;7.262;2022-08-06T03:12:29;3.10;;;1.87;;
26484;SDS011;18083;50.560;7.262;2022-08-06T03:14:57;2.50;;;1.70;;
26484;SDS011;18083;50.560;7.262;2022-08-06T03:17:26;4.85;;;2.00;;
26484;SDS011;18083;50.560;7.262;2022-08-06T03:19:54;5.12;;;1.85;;
26484;SDS011;18083;50.560;7.262;2022-08-06T03:22:23;2.87;;;1.72;;
26484;SDS011;18083;50.560;7.262;2022-08-06T03:24:51;2.72;;;1.85;;
26484;SDS011;18083;50.560;7.262;2022-08-06T03:27:20;5.90;;;1.90;;
26484;SDS011;18083;50.560;7.262;2022-08-06T03:29:48;3.45;;;1.95;;
26484;SDS011;18083;50.560;7.262;2022-08-06T03:32:16;3.12;;;1.95;;
26484;SDS011;18083;50.560;7.262;2022-08-06T03:34:43;12.50;;;2.85;;
26484;SDS011;18083;50.560;7.262;2022-08-06T03:37:11;3.35;;;1.92;;
26484;SDS011;18083;50.560;7.262;2022-08-06T03:39:41;5.70;;;2.20;;
26484;SDS011;18083;50.560;7.262;2022-08-06T03:42:08;3.80;;;1.80;;
26484;SDS011;18083;50.560;7.262;2022-08-06T03:44:36;2.83;;;1.82;;
26484;SDS011;18083;50.560;7.262;2022-08-06T03:47:11;4.00;;;1.98;;
26484;SDS011;18083;50.560;7.262;2022-08-06T03:49:41;2.52;;;1.82;;
26484;SDS011;18083;50.560;7.262;2022-08-06T03:52:12;4.42;;;1.85;;
26484;SDS011;18083;50.560;7.262;2022-08-06T03:54:40;3.67;;;1.92;;
26484;SDS011;18083;50.560;7.262;2022-08-06T03:57:12;4.87;;;2.17;;
26484;SDS011;18083;50.560;7.262;2022-08-06T03:59:41;3.25;;;2.20;;
26484;SDS011;18083;50.560;7.262;2022-08-06T04:02:09;6.03;;;1.82;;
26484;SDS011;18083;50.560;7.262;2022-08-06T04:04:37;4.60;;;2.05;;
26484;SDS011;18083;50.560;7.262;2022-08-06T04:07:05;4.25;;;2.02;;
26484;SDS011;18083;50.560;7.262;2022-08-06T04:09:32;3.52;;;2.00;;
26484;SDS011;18083;50.560;7.262;2022-08-06T04:12:01;2.67;;;2.00;;
26484;SDS011;18083;50.560;7.262;2022-08-06T04:14:29;2.30;;;1.70;;
26484;SDS011;18083;50.560;7.262;2022-08-06T04:16:57;3.02;;;2.10;;
26484;SDS011;18083;50.560;7.262;2022-08-06T04:19:25;4.05;;;2.87;;
26484;SDS011;18083;50.560;7.262;2022-08-06T04:21:52;3.95;;;2.22;;
26484;SDS011;18083;50.560;7.262;2022-08-06T04:24:20;2.95;;;2.58;;
26484;SDS011;18083;50.560;7.262;2022-08-06T04:26:48;6.12;;;2.67;;
26484;SDS011;18083;50.560;7.262;2022-08-06T04:29:17;4.10;;;2.50;;
26484;SDS011;18083;50.560;7.262;2022-08-06T04:31:45;2.40;;;2.20;;
26484;SDS011;18083;50.560;7.262;2022-08-06T04:34:13;3.67;;;2.20;;
26484;SDS011;18083;50.560;7.262;2022-08-06T04:36:42;3.77;;;2.20;;
26484;SDS011;18083;50.560;7.262;2022-08-06T04:39:09;3.15;;;2.00;;
26484;SDS011;18083;50.560;7.262;2022-08-06T04:41:37;2.52;;;2.33;;
26484;SDS011;18083;50.560;7.262;2022-08-06T04:44:04;6.58;;;2.52;;
26484;SDS011;18083;50.560;7.262;2022-08-06T04:46:32;4.62;;;2.70;;
26484;SDS011;18083;50.560;7.262;2022-08-06T04:48:59;5.20;;;1.95;;
26484;SDS011;18083;50.560;7.262;2022-08-06T04:51:27;5.45;;;2.22;;
26484;SDS011;18083;50.560;7.262;2022-08-06T04:53:54;4.60;;;2.10;;
26484;SDS011;18083;50.560;7.262;2022-08-06T04:56:21;5.70;;;2.17;;
26484;SDS011;18083;50.560;7.262;2022-08-06T04:58:49;5.90;;;2.95;;
26484;SDS011;18083;50.560;7.262;2022-08-06T05:01:16;2.47;;;2.00;;
26484;SDS011;18083;50.560;7.262;2022-08-06T05:03:43;6.15;;;2.58;;
26484;SDS011;18083;50.560;7.262;2022-08-06T05:08:46;4.78;;;2.33;;
26484;SDS011;18083;50.560;7.262;2022-08-06T05:11:24;6.92;;;1.87;;
26484;SDS011;18083;50.560;7.262;2022-08-06T05:13:54;3.12;;;2.20;;
26484;SDS011;18083;50.560;7.262;2022-08-06T05:16:21;6.17;;;2.50;;
26484;SDS011;18083;50.560;7.262;2022-08-06T05:18:51;4.08;;;2.37;;
26484;SDS011;18083;50.560;7.262;2022-08-06T05:21:23;5.67;;;2.42;;
26484;SDS011;18083;50.560;7.262;2022-08-06T05:23:54;5.30;;;2.17;;
26484;SDS011;18083;50.560;7.262;2022-08-06T05:26:21;2.67;;;1.77;;
26484;SDS011;18083;50.560;7.262;2022-08-06T05:28:49;4.55;;;2.33;;
26484;SDS011;18083;50.560;7.262;2022-08-06T05:31:27;1.98;;;1.75;;
26484;SDS011;18083;50.560;7.262;2022-08-06T05:33:45;2.33;;;2.00;;
26484;SDS011;18083;50.560;7.262;2022-08-06T05:36:12;3.95;;;2.47;;
26484;SDS011;18083;50.560;7.262;2022-08-06T05:38:40;6.15;;;2.00;;
26484;SDS011;18083;50.560;7.262;2022-08-06T05:41:08;5.50;;;2.00;;
26484;SDS011;18083;50.560;7.262;2022-08-06T05:43:36;9.30;;;2.30;;
26484;SDS011;18083;50.560;7.262;2022-08-06T05:46:07;4.97;;;2.12;;
26484;SDS011;18083;50.560;7.262;2022-08-06T05:48:34;3.77;;;2.25;;
26484;SDS011;18083;50.560;7.262;2022-08-06T05:51:09;3.52;;;2.37;;
26484;SDS011;18083;50.560;7.262;2022-08-06T05:53:33;4.75;;;2.70;;
26484;SDS011;18083;50.560;7.262;2022-08-06T05:56:09;3.45;;;2.17;;
26484;SDS011;18083;50.560;7.262;2022-08-06T05:58:35;3.30;;;2.35;;
26484;SDS011;18083;50.560;7.262;2022-08-06T06:01:01;4.55;;;2.83;;
26484;SDS011;18083;50.560;7.262;2022-08-06T06:03:29;4.03;;;2.58;;
26484;SDS011;18083;50.560;7.262;2022-08-06T06:05:57;3.45;;;2.83;;
26484;SDS011;18083;50.560;7.262;2022-08-06T06:08:25;5.08;;;3.20;;
26484;SDS011;18083;50.560;7.262;2022-08-06T06:10:53;7.45;;;2.87;;
26484;SDS011;18083;50.560;7.262;2022-08-06T06:13:20;4.92;;;2.85;;
26484;SDS011;18083;50.560;7.262;2022-08-06T06:16:01;3.08;;;2.37;;
26484;SDS011;18083;50.560;7.262;2022-08-06T06:21:18;4.87;;;2.85;;
26484;SDS011;18083;50.560;7.262;2022-08-06T06:23:51;8.85;;;2.80;;
26484;SDS011;18083;50.560;7.262;2022-08-06T06:26:24;4.70;;;3.20;;
26484;SDS011;18083;50.560;7.262;2022-08-06T06:29:01;10.40;;;4.30;;
26484;SDS011;18083;50.560;7.262;2022-08-06T06:31:35;5.00;;;2.60;;
26484;SDS011;18083;50.560;7.262;2022-08-06T06:39:18;4.70;;;3.08;;
26484;SDS011;18083;50.560;7.262;2022-08-06T06:41:45;4.58;;;2.80;;
26484;SDS011;18083;50.560;7.262;2022-08-06T06:44:24;4.15;;;2.67;;
26484;SDS011;18083;50.560;7.262;2022-08-06T06:46:51;7.17;;;2.95;;
26484;SDS011;18083;50.560;7.262;2022-08-06T06:49:18;7.78;;;2.87;;
26484;SDS011;18083;50.560;7.262;2022-08-06T06:51:53;9.55;;;3.20;;
26484;SDS011;18083;50.560;7.262;2022-08-06T06:54:22;2.85;;;2.65;;
26484;SDS011;18083;50.560;7.262;2022-08-06T06:56:49;4.42;;;3.08;;
26484;SDS011;18083;50.560;7.262;2022-08-06T06:59:20;4.10;;;2.90;;
26484;SDS011;18083;50.560;7.262;2022-08-06T07:01:47;4.05;;;2.67;;
26484;SDS011;18083;50.560;7.262;2022-08-06T07:04:15;4.70;;;2.50;;
26484;SDS011;18083;50.560;7.262;2022-08-06T07:06:43;3.45;;;2.65;;
26484;SDS011;18083;50.560;7.262;2022-08-06T07:09:16;4.42;;;2.47;;
26484;SDS011;18083;50.560;7.262;2022-08-06T07:11:44;4.03;;;2.47;;
26484;SDS011;18083;50.560;7.262;2022-08-06T07:14:13;4.08;;;2.47;;
26484;SDS011;18083;50.560;7.262;2022-08-06T07:16:41;2.77;;;2.10;;
26484;SDS011;18083;50.560;7.262;2022-08-06T07:19:10;6.25;;;1.77;;
26484;SDS011;18083;50.560;7.262;2022-08-06T07:21:39;2.08;;;1.77;;
26484;SDS011;18083;50.560;7.262;2022-08-06T07:24:07;2.22;;;1.95;;
26484;SDS011;18083;50.560;7.262;2022-08-06T07:26:35;4.30;;;1.92;;
26484;SDS011;18083;50.560;7.262;2022-08-06T07:29:02;4.25;;;1.52;;
26484;SDS011;18083;50.560;7.262;2022-08-06T07:31:30;3.75;;;2.58;;
26484;SDS011;18083;50.560;7.262;2022-08-06T07:33:57;3.72;;;1.42;;
26484;SDS011;18083;50.560;7.262;2022-08-06T07:36:26;3.55;;;1.52;;
26484;SDS011;18083;50.560;7.262;2022-08-06T07:38:59;5.65;;;1.65;;
26484;SDS011;18083;50.560;7.262;2022-08-06T07:41:22;2.95;;;1.90;;
26484;SDS011;18083;50.560;7.262;2022-08-06T07:43:51;2.70;;;1.37;;
26484;SDS011;18083;50.560;7.262;2022-08-06T07:46:28;3.60;;;1.87;;
26484;SDS011;18083;50.560;7.262;2022-08-06T07:48:55;3.20;;;1.35;;
26484;SDS011;18083;50.560;7.262;2022-08-06T07:51:23;4.50;;;1.45;;
26484;SDS011;18083;50.560;7.262;2022-08-06T07:53:51;4.22;;;1.67;;
26484;SDS011;18083;50.560;7.262;2022-08-06T07:56:19;3.70;;;1.00;;
26484;SDS011;18083;50.560;7.262;2022-08-06T07:58:48;1.10;;;0.82;;
26484;SDS011;18083;50.560;7.262;2022-08-06T08:01:16;3.12;;;1.25;;
26484;SDS011;18083;50.560;7.262;2022-08-06T08:03:43;1.05;;;0.85;;
26484;SDS011;18083;50.560;7.262;2022-08-06T08:06:29;4.62;;;1.17;;
26484;SDS011;18083;50.560;7.262;2022-08-06T08:09:12;3.70;;;1.20;;
26484;SDS011;18083;50.560;7.262;2022-08-06T08:11:35;2.37;;;1.17;;
26484;SDS011;18083;50.560;7.262;2022-08-06T08:14:07;1.65;;;1.00;;
26484;SDS011;18083;50.560;7.262;2022-08-06T08:16:35;2.40;;;0.90;;
26484;SDS011;18083;50.560;7.262;2022-08-06T08:19:18;3.87;;;1.10;;
26484;SDS011;18083;50.560;7.262;2022-08-06T08:21:32;0.90;;;0.80;;
26484;SDS011;18083;50.560;7.262;2022-08-06T08:23:59;4.35;;;1.30;;
26484;SDS011;18083;50.560;7.262;2022-08-06T08:26:27;1.98;;;0.80;;
26484;SDS011;18083;50.560;7.262;2022-08-06T08:28:54;1.98;;;1.10;;
26484;SDS011;18083;50.560;7.262;2022-08-06T08:31:21;4.83;;;1.12;;
26484;SDS011;18083;50.560;7.262;2022-08-06T08:33:49;1.42;;;0.70;;
26484;SDS011;18083;50.560;7.262;2022-08-06T08:36:16;4.58;;;1.25;;
26484;SDS011;18083;50.560;7.262;2022-08-06T08:38:45;5.67;;;1.10;;
26484;SDS011;18083;50.560;7.262;2022-08-06T08:41:14;2.27;;;0.88;;
26484;SDS011;18083;50.560;7.262;2022-08-06T08:43:43;3.92;;;0.88;;
26484;SDS011;18083;50.560;7.262;2022-08-06T08:46:11;3.65;;;0.70;;
26484;SDS011;18083;50.560;7.262;2022-08-06T08:48:38;1.47;;;0.98;;
26484;SDS011;18083;50.560;7.262;2022-08-06T08:51:06;2.05;;;0.88;;
26484;SDS011;18083;50.560;7.262;2022-08-06T08:53:36;9.98;;;2.25;;
26484;SDS011;18083;50.560;7.262;2022-08-06T08:56:03;2.35;;;0.93;;
26484;SDS011;18083;50.560;7.262;2022-08-06T08:58:30;3.37;;;0.72;;
26484;SDS011;18083;50.560;7.262;2022-08-06T09:00:59;1.95;;;0.93;;
26484;SDS011;18083;50.560;7.262;2022-08-06T09:03:27;0.80;;;0.65;;
26484;SDS011;18083;50.560;7.262;2022-08-06T09:05:54;1.87;;;0.90;;
26484;SDS011;18083;50.560;7.262;2022-08-06T09:08:22;1.25;;;0.60;;
26484;SDS011;18083;50.560;7.262;2022-08-06T09:10:49;2.75;;;1.27;;
26484;SDS011;18083;50.560;7.262;2022-08-06T09:13:17;1.47;;;0.82;;
26484;SDS011;18083;50.560;7.262;2022-08-06T09:15:44;2.45;;;1.10;;
26484;SDS011;18083;50.560;7.262;2022-08-06T09:18:11;3.22;;;0.55;;
26484;SDS011;18083;50.560;7.262;2022-08-06T09:20:39;2.05;;;0.80;;
26484;SDS011;18083;50.560;7.262;2022-08-06T09:23:06;4.42;;;1.10;;
26484;SDS011;18083;50.560;7.262;2022-08-06T09:25:38;0.50;;;0.50;;
26484;SDS011;18083;50.560;7.262;2022-08-06T09:28:08;6.40;;;0.95;;
26484;SDS011;18083;50.560;7.262;2022-08-06T09:30:34;0.95;;;0.80;;
26484;SDS011;18083;50.560;7.262;2022-08-06T09:33:02;1.07;;;0.42;;
26484;SDS011;18083;50.560;7.262;2022-08-06T09:35:30;2.95;;;0.78;;
26484;SDS011;18083;50.560;7.262;2022-08-06T09:38:03;3.87;;;0.88;;
26484;SDS011;18083;50.560;7.262;2022-08-06T09:40:26;0.80;;;0.65;;
26484;SDS011;18083;50.560;7.262;2022-08-06T09:42:53;3.72;;;0.53;;
26484;SDS011;18083;50.560;7.262;2022-08-06T09:45:22;2.87;;;0.60;;
26484;SDS011;18083;50.560;7.262;2022-08-06T09:48:06;1.60;;;0.70;;
26484;SDS011;18083;50.560;7.262;2022-08-06T09:50:37;0.80;;;0.60;;
26484;SDS011;18083;50.560;7.262;2022-08-06T09:53:05;4.47;;;0.82;;
26484;SDS011;18083;50.560;7.262;2022-08-06T09:55:32;2.40;;;0.60;;
26484;SDS011;18083;50.560;7.262;2022-08-06T09:57:59;4.42;;;1.05;;
26484;SDS011;18083;50.560;7.262;2022-08-06T10:00:28;1.37;;;0.50;;
26484;SDS011;18083;50.560;7.262;2022-08-06T10:02:56;2.87;;;0.62;;
26484;SDS011;18083;50.560;7.262;2022-08-06T10:05:24;2.10;;;0.72;;
26484;SDS011;18083;50.560;7.262;2022-08-06T10:08:02;4.05;;;0.78;;
26484;SDS011;18083;50.560;7.262;2022-08-06T10:10:39;0.98;;;0.60;;
26484;SDS011;18083;50.560;7.262;2022-08-06T10:13:13;0.72;;;0.70;;
26484;SDS011;18083;50.560;7.262;2022-08-06T10:15:42;1.50;;;0.62;;
26484;SDS011;18083;50.560;7.262;2022-08-06T10:18:30;0.70;;;0.62;;
26484;SDS011;18083;50.560;7.262;2022-08-06T10:21:01;0.90;;;0.82;;
26484;SDS011;18083;50.560;7.262;2022-08-06T10:23:30;8.10;;;1.42;;
26484;SDS011;18083;50.560;7.262;2022-08-06T10:26:00;1.37;;;0.82;;
26484;SDS011;18083;50.560;7.262;2022-08-06T10:28:27;2.12;;;0.75;;
26484;SDS011;18083;50.560;7.262;2022-08-06T10:30:56;3.62;;;1.42;;
26484;SDS011;18083;50.560;7.262;2022-08-06T10:33:23;0.55;;;0.55;;
26484;SDS011;18083;50.560;7.262;2022-08-06T10:35:52;1.22;;;0.68;;
26484;SDS011;18083;50.560;7.262;2022-08-06T10:38:20;1.87;;;0.70;;
26484;SDS011;18083;50.560;7.262;2022-08-06T10:40:48;1.50;;;0.80;;
26484;SDS011;18083;50.560;7.262;2022-08-06T10:43:17;2.20;;;0.70;;
26484;SDS011;18083;50.560;7.262;2022-08-06T10:45:45;2.95;;;1.22;;
26484;SDS011;18083;50.560;7.262;2022-08-06T10:48:13;3.17;;;0.82;;
26484;SDS011;18083;50.560;7.262;2022-08-06T10:50:41;2.30;;;0.60;;
26484;SDS011;18083;50.560;7.262;2022-08-06T10:53:08;1.05;;;0.60;;
26484;SDS011;18083;50.560;7.262;2022-08-06T10:55:36;1.42;;;0.70;;
26484;SDS011;18083;50.560;7.262;2022-08-06T10:58:03;2.55;;;0.60;;
26484;SDS011;18083;50.560;7.262;2022-08-06T11:00:31;3.17;;;0.80;;
26484;SDS011;18083;50.560;7.262;2022-08-06T11:05:40;1.17;;;0.62;;
26484;SDS011;18083;50.560;7.262;2022-08-06T11:08:11;3.70;;;0.80;;
26484;SDS011;18083;50.560;7.262;2022-08-06T11:15:53;1.57;;;0.60;;
26484;SDS011;18083;50.560;7.262;2022-08-06T11:18:21;2.25;;;0.85;;
26484;SDS011;18083;50.560;7.262;2022-08-06T11:20:48;4.15;;;0.80;;
26484;SDS011;18083;50.560;7.262;2022-08-06T11:25:49;2.20;;;0.78;;
26484;SDS011;18083;50.560;7.262;2022-08-06T11:30:58;1.92;;;0.55;;
26484;SDS011;18083;50.560;7.262;2022-08-06T11:36:06;1.02;;;0.55;;
26484;SDS011;18083;50.560;7.262;2022-08-06T11:41:18;1.10;;;0.55;;
26484;SDS011;18083;50.560;7.262;2022-08-06T11:46:26;1.07;;;0.90;;
26484;SDS011;18083;50.560;7.262;2022-08-06T11:54:18;1.27;;;0.57;;
26484;SDS011;18083;50.560;7.262;2022-08-06T11:59:33;1.47;;;0.60;;
26484;SDS011;18083;50.560;7.262;2022-08-06T12:02:02;1.60;;;1.15;;
26484;SDS011;18083;50.560;7.262;2022-08-06T12:04:38;0.50;;;0.50;;
26484;SDS011;18083;50.560;7.262;2022-08-06T12:09:43;1.47;;;0.60;;
26484;SDS011;18083;50.560;7.262;2022-08-06T12:14:56;2.22;;;1.12;;
26484;SDS011;18083;50.560;7.262;2022-08-06T12:17:25;1.02;;;0.57;;
26484;SDS011;18083;50.560;7.262;2022-08-06T12:19:53;2.92;;;1.15;;
26484;SDS011;18083;50.560;7.262;2022-08-06T12:22:21;0.50;;;0.50;;
26484;SDS011;18083;50.560;7.262;2022-08-06T12:24:50;1.12;;;0.50;;
26484;SDS011;18083;50.560;7.262;2022-08-06T12:27:18;0.55;;;0.42;;
26484;SDS011;18083;50.560;7.262;2022-08-06T12:29:45;0.75;;;0.75;;
26484;SDS011;18083;50.560;7.262;2022-08-06T12:32:19;1.02;;;0.50;;
26484;SDS011;18083;50.560;7.262;2022-08-06T12:34:48;1.65;;;0.62;;
26484;SDS011;18083;50.560;7.262;2022-08-06T12:37:16;2.42;;;0.80;;
26484;SDS011;18083;50.560;7.262;2022-08-06T12:39:43;0.50;;;0.50;;
26484;SDS011;18083;50.560;7.262;2022-08-06T12:42:29;1.55;;;1.45;;
26484;SDS011;18083;50.560;7.262;2022-08-06T12:44:56;0.42;;;0.42;;
26484;SDS011;18083;50.560;7.262;2022-08-06T12:47:24;0.62;;;0.53;;
26484;SDS011;18083;50.560;7.262;2022-08-06T12:49:52;2.05;;;0.53;;
26484;SDS011;18083;50.560;7.262;2022-08-06T12:52:20;1.02;;;0.65;;
26484;SDS011;18083;50.560;7.262;2022-08-06T12:54:48;0.82;;;0.47;;
26484;SDS011;18083;50.560;7.262;2022-08-06T12:57:22;3.90;;;1.10;;
26484;SDS011;18083;50.560;7.262;2022-08-06T12:59:50;0.72;;;0.62;;
26484;SDS011;18083;50.560;7.262;2022-08-06T13:02:18;1.57;;;0.60;;
26484;SDS011;18083;50.560;7.262;2022-08-06T13:04:50;1.35;;;0.53;;
26484;SDS011;18083;50.560;7.262;2022-08-06T13:07:15;0.98;;;0.70;;
26484;SDS011;18083;50.560;7.262;2022-08-06T13:09:43;0.72;;;0.53;;
26484;SDS011;18083;50.560;7.262;2022-08-06T13:12:15;1.20;;;0.50;;
26484;SDS011;18083;50.560;7.262;2022-08-06T13:14:53;0.53;;;0.50;;
26484;SDS011;18083;50.560;7.262;2022-08-06T13:17:23;0.75;;;0.40;;
26484;SDS011;18083;50.560;7.262;2022-08-06T13:19:51;2.87;;;0.60;;
26484;SDS011;18083;50.560;7.262;2022-08-06T13:22:19;0.40;;;0.30;;
26484;SDS011;18083;50.560;7.262;2022-08-06T13:24:48;2.77;;;0.62;;
26484;SDS011;18083;50.560;7.262;2022-08-06T13:27:15;0.60;;;0.53;;
26484;SDS011;18083;50.560;7.262;2022-08-06T13:30:16;0.60;;;0.60;;
26484;SDS011;18083;50.560;7.262;2022-08-06T13:32:17;0.68;;;0.68;;
26484;SDS011;18083;50.560;7.262;2022-08-06T13:34:50;0.68;;;0.53;;
26484;SDS011;18083;50.560;7.262;2022-08-06T13:40:05;3.83;;;0.82;;
26484;SDS011;18083;50.560;7.262;2022-08-06T13:42:32;2.25;;;0.60;;
26484;SDS011;18083;50.560;7.262;2022-08-06T13:45:17;1.12;;;0.57;;
26484;SDS011;18083;50.560;7.262;2022-08-06T13:47:28;1.50;;;0.60;;
26484;SDS011;18083;50.560;7.262;2022-08-06T13:49:56;2.08;;;0.60;;
26484;SDS011;18083;50.560;7.262;2022-08-06T13:52:23;0.85;;;0.57;;
26484;SDS011;18083;50.560;7.262;2022-08-06T13:54:50;1.32;;;0.72;;
26484;SDS011;18083;50.560;7.262;2022-08-06T13:57:18;1.05;;;0.50;;
26484;SDS011;18083;50.560;7.262;2022-08-06T13:59:45;0.42;;;0.42;;
26484;SDS011;18083;50.560;7.262;2022-08-06T14:02:12;0.68;;;0.53;;
26484;SDS011;18083;50.560;7.262;2022-08-06T14:04:42;2.85;;;0.42;;
26484;SDS011;18083;50.560;7.262;2022-08-06T14:07:09;1.35;;;0.78;;
26484;SDS011;18083;50.560;7.262;2022-08-06T14:09:36;1.50;;;0.60;;
26484;SDS011;18083;50.560;7.262;2022-08-06T14:12:04;2.05;;;0.60;;
26484;SDS011;18083;50.560;7.262;2022-08-06T14:14:33;0.40;;;0.40;;
26484;SDS011;18083;50.560;7.262;2022-08-06T14:17:00;1.80;;;0.60;;
26484;SDS011;18083;50.560;7.262;2022-08-06T14:19:28;0.28;;;0.28;;
26484;SDS011;18083;50.560;7.262;2022-08-06T14:21:55;0.78;;;0.55;;
26484;SDS011;18083;50.560;7.262;2022-08-06T14:24:23;0.85;;;0.57;;
26484;SDS011;18083;50.560;7.262;2022-08-06T14:26:50;1.95;;;0.60;;
26484;SDS011;18083;50.560;7.262;2022-08-06T14:29:17;2.25;;;0.80;;
26484;SDS011;18083;50.560;7.262;2022-08-06T14:31:45;2.17;;;0.70;;
26484;SDS011;18083;50.560;7.262;2022-08-06T14:34:12;1.92;;;0.68;;
26484;SDS011;18083;50.560;7.262;2022-08-06T14:36:39;1.05;;;0.62;;
26484;SDS011;18083;50.560;7.262;2022-08-06T14:39:07;2.62;;;0.57;;
26484;SDS011;18083;50.560;7.262;2022-08-06T14:41:41;2.60;;;0.70;;
26484;SDS011;18083;50.560;7.262;2022-08-06T14:44:26;0.62;;;0.40;;
26484;SDS011;18083;50.560;7.262;2022-08-06T14:47:12;0.90;;;0.68;;
26484;SDS011;18083;50.560;7.262;2022-08-06T14:49:39;1.05;;;0.82;;
26484;SDS011;18083;50.560;7.262;2022-08-06T14:52:06;0.53;;;0.50;;
26484;SDS011;18083;50.560;7.262;2022-08-06T14:54:34;1.07;;;0.78;;
26484;SDS011;18083;50.560;7.262;2022-08-06T14:57:02;1.00;;;0.62;;
26484;SDS011;18083;50.560;7.262;2022-08-06T14:59:29;1.60;;;0.70;;
26484;SDS011;18083;50.560;7.262;2022-08-06T15:01:57;0.60;;;0.60;;
26484;SDS011;18083;50.560;7.262;2022-08-06T15:04:24;1.32;;;0.88;;
26484;SDS011;18083;50.560;7.262;2022-08-06T15:06:52;0.55;;;0.50;;
26484;SDS011;18083;50.560;7.262;2022-08-06T15:09:20;2.60;;;0.82;;
26484;SDS011;18083;50.560;7.262;2022-08-06T15:11:47;0.40;;;0.40;;
26484;SDS011;18083;50.560;7.262;2022-08-06T15:14:15;0.40;;;0.40;;
26484;SDS011;18083;50.560;7.262;2022-08-06T15:16:42;1.25;;;0.40;;
26484;SDS011;18083;50.560;7.262;2022-08-06T15:19:10;2.27;;;0.62;;
26484;SDS011;18083;50.560;7.262;2022-08-06T15:21:37;1.07;;;0.65;;
26484;SDS011;18083;50.560;7.262;2022-08-06T15:24:04;2.00;;;0.85;;
26484;SDS011;18083;50.560;7.262;2022-08-06T15:26:32;0.80;;;0.50;;
26484;SDS011;18083;50.560;7.262;2022-08-06T15:28:59;4.10;;;0.98;;
26484;SDS011;18083;50.560;7.262;2022-08-06T15:31:27;0.47;;;0.40;;
26484;SDS011;18083;50.560;7.262;2022-08-06T15:33:55;0.50;;;0.50;;
26484;SDS011;18083;50.560;7.262;2022-08-06T15:36:25;1.65;;;0.50;;
26484;SDS011;18083;50.560;7.262;2022-08-06T15:38:52;0.55;;;0.50;;
26484;SDS011;18083;50.560;7.262;2022-08-06T15:41:20;3.33;;;0.47;;
26484;SDS011;18083;50.560;7.262;2022-08-06T15:43:50;1.40;;;0.68;;
26484;SDS011;18083;50.560;7.262;2022-08-06T15:46:17;3.12;;;0.53;;
26484;SDS011;18083;50.560;7.262;2022-08-06T15:48:45;0.93;;;0.65;;
26484;SDS011;18083;50.560;7.262;2022-08-06T15:51:12;0.50;;;0.50;;
26484;SDS011;18083;50.560;7.262;2022-08-06T15:53:40;2.67;;;0.53;;
26484;SDS011;18083;50.560;7.262;2022-08-06T15:56:07;0.57;;;0.57;;